sensor_id;sensor_type;location;lat;lon;timestamp;P1;durP1;ratioP1;P2;durP2;ratioP2
25163;SDS011;13440;50.860;13.662;2023-12-04T00:01:44;13.65;;;6.85;;
25163;SDS011;13440;50.860;13.662;2023-12-04T00:04:10;12.68;;;7.00;;
25163;SDS011;13440;50.860;13.662;2023-12-04T00:06:35;11.38;;;6.45;;
25163;SDS011;13440;50.860;13.662;2023-12-04T00:09:01;13.02;;;6.70;;
25163;SDS011;13440;50.860;13.662;2023-12-04T00:11:26;10.32;;;5.82;;
25163;SDS011;13440;50.860;13.662;2023-12-04T00:13:52;9.48;;;5.72;;
25163;SDS011;13440;50.860;13.662;2023-12-04T00:16:17;11.60;;;6.18;;
25163;SDS011;13440;50.860;13.662;2023-12-04T00:18:43;9.90;;;5.60;;
25163;SDS011;13440;50.860;13.662;2023-12-04T00:21:08;12.07;;;6.20;;
25163;SDS011;13440;50.860;13.662;2023-12-04T00:23:34;12.85;;;6.20;;
25163;SDS011;13440;50.860;13.662;2023-12-04T00:25:59;11.52;;;6.47;;
25163;SDS011;13440;50.860;13.662;2023-12-04T00:28:24;10.65;;;5.85;;
25163;SDS011;13440;50.860;13.662;2023-12-04T00:30:50;10.75;;;5.35;;
25163;SDS011;13440;50.860;13.662;2023-12-04T00:33:15;11.55;;;6.07;;
25163;SDS011;13440;50.860;13.662;2023-12-04T00:35:41;12.30;;;6.43;;
25163;SDS011;13440;50.860;13.662;2023-12-04T00:38:06;11.45;;;5.72;;
25163;SDS011;13440;50.860;13.662;2023-12-04T00:40:32;11.63;;;6.15;;
25163;SDS011;13440;50.860;13.662;2023-12-04T00:42:58;10.52;;;5.78;;
25163;SDS011;13440;50.860;13.662;2023-12-04T00:45:24;10.38;;;6.18;;
25163;SDS011;13440;50.860;13.662;2023-12-04T00:47:49;10.32;;;5.57;;
25163;SDS011;13440;50.860;13.662;2023-12-04T00:50:14;9.30;;;5.50;;
25163;SDS011;13440;50.860;13.662;2023-12-04T00:52:40;9.77;;;5.45;;
25163;SDS011;13440;50.860;13.662;2023-12-04T00:55:05;11.30;;;5.57;;
25163;SDS011;13440;50.860;13.662;2023-12-04T00:57:31;9.30;;;5.35;;
25163;SDS011;13440;50.860;13.662;2023-12-04T00:59:56;9.77;;;5.20;;
25163;SDS011;13440;50.860;13.662;2023-12-04T01:02:22;10.40;;;5.20;;
25163;SDS011;13440;50.860;13.662;2023-12-04T01:04:47;9.32;;;5.38;;
25163;SDS011;13440;50.860;13.662;2023-12-04T01:07:12;9.50;;;5.07;;
25163;SDS011;13440;50.860;13.662;2023-12-04T01:09:38;8.18;;;5.03;;
25163;SDS011;13440;50.860;13.662;2023-12-04T01:12:03;9.50;;;5.07;;
25163;SDS011;13440;50.860;13.662;2023-12-04T01:14:29;10.80;;;4.80;;
25163;SDS011;13440;50.860;13.662;2023-12-04T01:16:54;9.48;;;5.13;;
25163;SDS011;13440;50.860;13.662;2023-12-04T01:19:20;7.32;;;4.60;;
25163;SDS011;13440;50.860;13.662;2023-12-04T01:21:45;7.10;;;4.43;;
25163;SDS011;13440;50.860;13.662;2023-12-04T01:24:11;6.93;;;4.70;;
25163;SDS011;13440;50.860;13.662;2023-12-04T01:26:36;7.85;;;4.57;;
25163;SDS011;13440;50.860;13.662;2023-12-04T01:29:01;7.13;;;4.45;;
25163;SDS011;13440;50.860;13.662;2023-12-04T01:31:27;7.55;;;5.00;;
25163;SDS011;13440;50.860;13.662;2023-12-04T01:33:52;6.65;;;4.28;;
25163;SDS011;13440;50.860;13.662;2023-12-04T01:36:17;9.05;;;5.00;;
25163;SDS011;13440;50.860;13.662;2023-12-04T01:38:43;9.60;;;5.05;;
25163;SDS011;13440;50.860;13.662;2023-12-04T01:41:08;10.32;;;5.13;;
25163;SDS011;13440;50.860;13.662;2023-12-04T01:43:33;7.38;;;4.47;;
25163;SDS011;13440;50.860;13.662;2023-12-04T01:46:00;7.30;;;4.85;;
25163;SDS011;13440;50.860;13.662;2023-12-04T01:48:25;9.00;;;5.10;;
25163;SDS011;13440;50.860;13.662;2023-12-04T01:50:52;9.82;;;5.45;;
25163;SDS011;13440;50.860;13.662;2023-12-04T01:53:18;9.52;;;5.40;;
25163;SDS011;13440;50.860;13.662;2023-12-04T01:55:43;10.05;;;5.30;;
25163;SDS011;13440;50.860;13.662;2023-12-04T01:58:09;9.70;;;5.75;;
25163;SDS011;13440;50.860;13.662;2023-12-04T02:00:35;9.32;;;5.40;;
25163;SDS011;13440;50.860;13.662;2023-12-04T02:03:00;9.60;;;5.13;;
25163;SDS011;13440;50.860;13.662;2023-12-04T02:05:26;9.95;;;5.30;;
25163;SDS011;13440;50.860;13.662;2023-12-04T02:07:52;12.63;;;5.93;;
25163;SDS011;13440;50.860;13.662;2023-12-04T02:10:18;10.40;;;5.82;;
25163;SDS011;13440;50.860;13.662;2023-12-04T02:12:43;12.27;;;6.25;;
25163;SDS011;13440;50.860;13.662;2023-12-04T02:15:09;9.55;;;6.05;;
25163;SDS011;13440;50.860;13.662;2023-12-04T02:17:34;11.27;;;6.45;;
25163;SDS011;13440;50.860;13.662;2023-12-04T02:20:00;10.13;;;5.70;;
25163;SDS011;13440;50.860;13.662;2023-12-04T02:22:26;9.48;;;5.65;;
25163;SDS011;13440;50.860;13.662;2023-12-04T02:24:51;10.18;;;6.15;;
25163;SDS011;13440;50.860;13.662;2023-12-04T02:27:17;9.32;;;5.38;;
25163;SDS011;13440;50.860;13.662;2023-12-04T02:29:47;9.98;;;5.68;;
25163;SDS011;13440;50.860;13.662;2023-12-04T02:32:14;7.78;;;5.20;;
25163;SDS011;13440;50.860;13.662;2023-12-04T02:34:41;10.90;;;5.78;;
25163;SDS011;13440;50.860;13.662;2023-12-04T02:37:07;9.55;;;5.47;;
25163;SDS011;13440;50.860;13.662;2023-12-04T02:39:33;9.77;;;5.78;;
25163;SDS011;13440;50.860;13.662;2023-12-04T02:41:58;11.52;;;5.90;;
25163;SDS011;13440;50.860;13.662;2023-12-04T02:44:24;10.50;;;6.03;;
25163;SDS011;13440;50.860;13.662;2023-12-04T02:46:50;10.73;;;5.80;;
25163;SDS011;13440;50.860;13.662;2023-12-04T02:49:15;8.70;;;5.28;;
25163;SDS011;13440;50.860;13.662;2023-12-04T02:51:41;8.60;;;4.60;;
25163;SDS011;13440;50.860;13.662;2023-12-04T02:54:06;9.23;;;5.10;;
25163;SDS011;13440;50.860;13.662;2023-12-04T02:56:32;12.40;;;6.30;;
25163;SDS011;13440;50.860;13.662;2023-12-04T02:58:57;10.95;;;6.35;;
25163;SDS011;13440;50.860;13.662;2023-12-04T03:01:22;9.55;;;5.80;;
25163;SDS011;13440;50.860;13.662;2023-12-04T03:03:48;9.75;;;5.75;;
25163;SDS011;13440;50.860;13.662;2023-12-04T03:06:13;10.52;;;5.40;;
25163;SDS011;13440;50.860;13.662;2023-12-04T03:08:41;11.30;;;6.13;;
25163;SDS011;13440;50.860;13.662;2023-12-04T03:11:07;11.73;;;6.28;;
25163;SDS011;13440;50.860;13.662;2023-12-04T03:13:33;11.05;;;6.10;;
25163;SDS011;13440;50.860;13.662;2023-12-04T03:15:59;11.57;;;6.25;;
25163;SDS011;13440;50.860;13.662;2023-12-04T03:18:24;12.05;;;6.80;;
25163;SDS011;13440;50.860;13.662;2023-12-04T03:20:50;13.50;;;6.93;;
25163;SDS011;13440;50.860;13.662;2023-12-04T03:23:16;10.35;;;6.15;;
25163;SDS011;13440;50.860;13.662;2023-12-04T03:25:41;12.25;;;6.28;;
25163;SDS011;13440;50.860;13.662;2023-12-04T03:28:07;12.13;;;6.45;;
25163;SDS011;13440;50.860;13.662;2023-12-04T03:30:32;11.45;;;6.13;;
25163;SDS011;13440;50.860;13.662;2023-12-04T03:32:57;10.95;;;6.45;;
25163;SDS011;13440;50.860;13.662;2023-12-04T03:35:23;11.40;;;6.22;;
25163;SDS011;13440;50.860;13.662;2023-12-04T03:37:48;9.20;;;5.78;;
25163;SDS011;13440;50.860;13.662;2023-12-04T03:40:15;12.95;;;6.97;;
25163;SDS011;13440;50.860;13.662;2023-12-04T03:42:41;12.75;;;6.93;;
25163;SDS011;13440;50.860;13.662;2023-12-04T03:45:06;12.10;;;6.47;;
25163;SDS011;13440;50.860;13.662;2023-12-04T03:47:32;11.02;;;6.63;;
25163;SDS011;13440;50.860;13.662;2023-12-04T03:49:57;11.73;;;6.85;;
25163;SDS011;13440;50.860;13.662;2023-12-04T03:52:22;11.27;;;6.80;;
25163;SDS011;13440;50.860;13.662;2023-12-04T03:54:48;12.70;;;6.75;;
25163;SDS011;13440;50.860;13.662;2023-12-04T03:57:13;10.63;;;6.38;;
25163;SDS011;13440;50.860;13.662;2023-12-04T03:59:39;9.93;;;5.93;;
25163;SDS011;13440;50.860;13.662;2023-12-04T04:02:04;12.25;;;6.20;;
25163;SDS011;13440;50.860;13.662;2023-12-04T04:04:30;10.38;;;6.10;;
25163;SDS011;13440;50.860;13.662;2023-12-04T04:06:55;9.13;;;5.53;;
25163;SDS011;13440;50.860;13.662;2023-12-04T04:09:20;9.57;;;6.00;;
25163;SDS011;13440;50.860;13.662;2023-12-04T04:11:46;10.02;;;5.60;;
25163;SDS011;13440;50.860;13.662;2023-12-04T04:14:11;10.55;;;5.80;;
25163;SDS011;13440;50.860;13.662;2023-12-04T04:16:37;10.68;;;5.60;;
25163;SDS011;13440;50.860;13.662;2023-12-04T04:19:02;11.43;;;6.45;;
25163;SDS011;13440;50.860;13.662;2023-12-04T04:21:27;11.40;;;6.47;;
25163;SDS011;13440;50.860;13.662;2023-12-04T04:23:53;15.48;;;7.93;;
25163;SDS011;13440;50.860;13.662;2023-12-04T04:26:18;11.73;;;6.85;;
25163;SDS011;13440;50.860;13.662;2023-12-04T04:28:44;12.75;;;6.55;;
25163;SDS011;13440;50.860;13.662;2023-12-04T04:31:09;12.77;;;6.47;;
25163;SDS011;13440;50.860;13.662;2023-12-04T04:33:35;10.07;;;6.13;;
25163;SDS011;13440;50.860;13.662;2023-12-04T04:36:00;11.00;;;6.32;;
25163;SDS011;13440;50.860;13.662;2023-12-04T04:38:26;10.13;;;6.38;;
25163;SDS011;13440;50.860;13.662;2023-12-04T04:40:51;11.27;;;6.43;;
25163;SDS011;13440;50.860;13.662;2023-12-04T04:43:17;12.30;;;6.88;;
25163;SDS011;13440;50.860;13.662;2023-12-04T04:45:43;12.32;;;6.85;;
25163;SDS011;13440;50.860;13.662;2023-12-04T04:48:09;14.45;;;7.82;;
25163;SDS011;13440;50.860;13.662;2023-12-04T04:50:34;12.35;;;7.30;;
25163;SDS011;13440;50.860;13.662;2023-12-04T04:53:00;12.90;;;6.88;;
25163;SDS011;13440;50.860;13.662;2023-12-04T04:55:25;11.27;;;6.55;;
25163;SDS011;13440;50.860;13.662;2023-12-04T04:57:51;11.82;;;6.70;;
25163;SDS011;13440;50.860;13.662;2023-12-04T05:00:16;12.63;;;6.82;;
25163;SDS011;13440;50.860;13.662;2023-12-04T05:02:42;11.43;;;6.38;;
25163;SDS011;13440;50.860;13.662;2023-12-04T05:05:08;10.05;;;5.97;;
25163;SDS011;13440;50.860;13.662;2023-12-04T05:07:33;11.43;;;5.63;;
25163;SDS011;13440;50.860;13.662;2023-12-04T05:09:59;8.75;;;5.25;;
25163;SDS011;13440;50.860;13.662;2023-12-04T05:12:24;9.40;;;5.55;;
25163;SDS011;13440;50.860;13.662;2023-12-04T05:14:49;8.30;;;4.35;;
25163;SDS011;13440;50.860;13.662;2023-12-04T05:17:15;7.72;;;4.22;;
25163;SDS011;13440;50.860;13.662;2023-12-04T05:19:40;7.72;;;4.05;;
25163;SDS011;13440;50.860;13.662;2023-12-04T05:22:05;4.88;;;3.05;;
25163;SDS011;13440;50.860;13.662;2023-12-04T05:24:31;8.20;;;3.30;;
25163;SDS011;13440;50.860;13.662;2023-12-04T05:26:56;4.28;;;2.78;;
25163;SDS011;13440;50.860;13.662;2023-12-04T05:29:22;5.38;;;2.97;;
25163;SDS011;13440;50.860;13.662;2023-12-04T05:31:47;4.57;;;2.85;;
25163;SDS011;13440;50.860;13.662;2023-12-04T05:34:12;5.30;;;3.17;;
25163;SDS011;13440;50.860;13.662;2023-12-04T05:36:38;4.80;;;2.90;;
25163;SDS011;13440;50.860;13.662;2023-12-04T05:39:03;5.28;;;3.08;;
25163;SDS011;13440;50.860;13.662;2023-12-04T05:41:29;4.85;;;2.67;;
25163;SDS011;13440;50.860;13.662;2023-12-04T05:43:55;4.60;;;3.00;;
25163;SDS011;13440;50.860;13.662;2023-12-04T05:46:20;4.15;;;3.00;;
25163;SDS011;13440;50.860;13.662;2023-12-04T05:48:46;6.05;;;3.08;;
25163;SDS011;13440;50.860;13.662;2023-12-04T05:51:11;3.70;;;2.72;;
25163;SDS011;13440;50.860;13.662;2023-12-04T05:53:37;5.68;;;3.05;;
25163;SDS011;13440;50.860;13.662;2023-12-04T05:56:04;3.30;;;2.60;;
25163;SDS011;13440;50.860;13.662;2023-12-04T05:58:29;5.20;;;3.05;;
25163;SDS011;13440;50.860;13.662;2023-12-04T06:00:55;4.25;;;2.90;;
25163;SDS011;13440;50.860;13.662;2023-12-04T06:03:20;4.35;;;2.63;;
25163;SDS011;13440;50.860;13.662;2023-12-04T06:05:46;3.33;;;2.72;;
25163;SDS011;13440;50.860;13.662;2023-12-04T06:08:11;3.15;;;2.28;;
25163;SDS011;13440;50.860;13.662;2023-12-04T06:10:36;3.00;;;2.28;;
25163;SDS011;13440;50.860;13.662;2023-12-04T06:13:02;3.17;;;2.08;;
25163;SDS011;13440;50.860;13.662;2023-12-04T06:15:28;4.32;;;2.17;;
25163;SDS011;13440;50.860;13.662;2023-12-04T06:17:53;3.15;;;2.22;;
25163;SDS011;13440;50.860;13.662;2023-12-04T06:20:18;4.95;;;3.13;;
25163;SDS011;13440;50.860;13.662;2023-12-04T06:22:44;3.60;;;2.35;;
25163;SDS011;13440;50.860;13.662;2023-12-04T06:25:09;3.97;;;2.47;;
25163;SDS011;13440;50.860;13.662;2023-12-04T06:27:35;4.25;;;2.67;;
25163;SDS011;13440;50.860;13.662;2023-12-04T06:30:01;4.30;;;2.60;;
25163;SDS011;13440;50.860;13.662;2023-12-04T06:32:27;4.38;;;3.05;;
25163;SDS011;13440;50.860;13.662;2023-12-04T06:34:52;6.22;;;3.60;;
25163;SDS011;13440;50.860;13.662;2023-12-04T06:37:20;5.65;;;3.38;;
25163;SDS011;13440;50.860;13.662;2023-12-04T06:39:45;7.25;;;4.32;;
25163;SDS011;13440;50.860;13.662;2023-12-04T06:42:12;5.40;;;3.35;;
25163;SDS011;13440;50.860;13.662;2023-12-04T06:44:38;4.65;;;2.95;;
25163;SDS011;13440;50.860;13.662;2023-12-04T06:47:04;5.00;;;2.85;;
25163;SDS011;13440;50.860;13.662;2023-12-04T06:49:30;6.20;;;3.50;;
25163;SDS011;13440;50.860;13.662;2023-12-04T06:51:58;4.13;;;2.67;;
25163;SDS011;13440;50.860;13.662;2023-12-04T06:54:24;4.65;;;3.00;;
25163;SDS011;13440;50.860;13.662;2023-12-04T06:56:50;4.68;;;2.95;;
25163;SDS011;13440;50.860;13.662;2023-12-04T06:59:17;3.97;;;2.97;;
25163;SDS011;13440;50.860;13.662;2023-12-04T07:01:42;3.90;;;2.92;;
25163;SDS011;13440;50.860;13.662;2023-12-04T07:04:08;4.47;;;2.78;;
25163;SDS011;13440;50.860;13.662;2023-12-04T07:06:38;4.88;;;3.38;;
25163;SDS011;13440;50.860;13.662;2023-12-04T07:09:04;4.47;;;2.92;;
25163;SDS011;13440;50.860;13.662;2023-12-04T07:11:29;5.00;;;2.78;;
25163;SDS011;13440;50.860;13.662;2023-12-04T07:13:55;4.38;;;2.95;;
25163;SDS011;13440;50.860;13.662;2023-12-04T07:16:20;5.85;;;3.65;;
25163;SDS011;13440;50.860;13.662;2023-12-04T07:18:45;7.30;;;3.90;;
25163;SDS011;13440;50.860;13.662;2023-12-04T07:21:11;6.93;;;4.03;;
25163;SDS011;13440;50.860;13.662;2023-12-04T07:23:36;6.05;;;3.60;;
25163;SDS011;13440;50.860;13.662;2023-12-04T07:26:02;5.80;;;3.60;;
25163;SDS011;13440;50.860;13.662;2023-12-04T07:28:28;7.43;;;3.85;;
25163;SDS011;13440;50.860;13.662;2023-12-04T07:30:54;5.75;;;3.63;;
25163;SDS011;13440;50.860;13.662;2023-12-04T07:33:20;5.47;;;3.75;;
25163;SDS011;13440;50.860;13.662;2023-12-04T07:35:45;5.88;;;3.42;;
25163;SDS011;13440;50.860;13.662;2023-12-04T07:38:11;5.70;;;3.25;;
25163;SDS011;13440;50.860;13.662;2023-12-04T07:40:37;5.25;;;3.83;;
25163;SDS011;13440;50.860;13.662;2023-12-04T07:43:03;5.13;;;3.67;;
25163;SDS011;13440;50.860;13.662;2023-12-04T07:45:28;4.95;;;3.60;;
25163;SDS011;13440;50.860;13.662;2023-12-04T07:47:53;5.65;;;3.85;;
25163;SDS011;13440;50.860;13.662;2023-12-04T07:50:19;5.70;;;3.88;;
25163;SDS011;13440;50.860;13.662;2023-12-04T07:52:44;6.68;;;3.80;;
25163;SDS011;13440;50.860;13.662;2023-12-04T07:55:09;5.10;;;3.33;;
25163;SDS011;13440;50.860;13.662;2023-12-04T07:57:35;6.80;;;4.05;;
25163;SDS011;13440;50.860;13.662;2023-12-04T08:00:00;5.57;;;3.67;;
25163;SDS011;13440;50.860;13.662;2023-12-04T08:02:26;5.63;;;3.72;;
25163;SDS011;13440;50.860;13.662;2023-12-04T08:04:51;6.90;;;3.75;;
25163;SDS011;13440;50.860;13.662;2023-12-04T08:07:17;4.90;;;3.50;;
25163;SDS011;13440;50.860;13.662;2023-12-04T08:09:42;4.70;;;3.50;;
25163;SDS011;13440;50.860;13.662;2023-12-04T08:12:07;5.57;;;3.63;;
25163;SDS011;13440;50.860;13.662;2023-12-04T08:14:34;4.90;;;3.40;;
25163;SDS011;13440;50.860;13.662;2023-12-04T08:16:59;5.40;;;3.47;;
25163;SDS011;13440;50.860;13.662;2023-12-04T08:19:24;4.53;;;2.92;;
25163;SDS011;13440;50.860;13.662;2023-12-04T08:21:50;4.88;;;3.47;;
25163;SDS011;13440;50.860;13.662;2023-12-04T08:24:15;5.43;;;3.25;;
25163;SDS011;13440;50.860;13.662;2023-12-04T08:26:43;4.10;;;3.08;;
25163;SDS011;13440;50.860;13.662;2023-12-04T08:29:09;5.38;;;3.80;;
25163;SDS011;13440;50.860;13.662;2023-12-04T08:31:34;4.30;;;3.40;;
25163;SDS011;13440;50.860;13.662;2023-12-04T08:34:00;6.15;;;3.42;;
25163;SDS011;13440;50.860;13.662;2023-12-04T08:36:25;4.50;;;3.47;;
25163;SDS011;13440;50.860;13.662;2023-12-04T08:38:50;5.30;;;4.00;;
25163;SDS011;13440;50.860;13.662;2023-12-04T08:41:16;4.78;;;3.60;;
25163;SDS011;13440;50.860;13.662;2023-12-04T08:43:41;4.75;;;3.38;;
25163;SDS011;13440;50.860;13.662;2023-12-04T08:46:13;6.13;;;3.63;;
25163;SDS011;13440;50.860;13.662;2023-12-04T08:48:39;4.80;;;3.97;;
25163;SDS011;13440;50.860;13.662;2023-12-04T08:51:05;4.97;;;3.47;;
25163;SDS011;13440;50.860;13.662;2023-12-04T08:53:30;6.85;;;3.85;;
25163;SDS011;13440;50.860;13.662;2023-12-04T08:55:55;5.97;;;3.63;;
25163;SDS011;13440;50.860;13.662;2023-12-04T08:58:22;6.47;;;3.83;;
25163;SDS011;13440;50.860;13.662;2023-12-04T09:00:47;5.03;;;3.38;;
25163;SDS011;13440;50.860;13.662;2023-12-04T09:03:12;5.25;;;3.53;;
25163;SDS011;13440;50.860;13.662;2023-12-04T09:05:38;5.03;;;3.53;;
25163;SDS011;13440;50.860;13.662;2023-12-04T09:08:03;5.10;;;3.30;;
25163;SDS011;13440;50.860;13.662;2023-12-04T09:10:28;5.90;;;3.45;;
25163;SDS011;13440;50.860;13.662;2023-12-04T09:12:54;5.33;;;3.60;;
25163;SDS011;13440;50.860;13.662;2023-12-04T09:15:19;7.97;;;3.88;;
25163;SDS011;13440;50.860;13.662;2023-12-04T09:17:44;5.35;;;3.60;;
25163;SDS011;13440;50.860;13.662;2023-12-04T09:20:10;5.07;;;3.20;;
25163;SDS011;13440;50.860;13.662;2023-12-04T09:22:36;3.67;;;3.05;;
25163;SDS011;13440;50.860;13.662;2023-12-04T09:25:04;4.55;;;3.08;;
25163;SDS011;13440;50.860;13.662;2023-12-04T09:27:29;4.90;;;3.20;;
25163;SDS011;13440;50.860;13.662;2023-12-04T09:29:54;4.37;;;3.17;;
25163;SDS011;13440;50.860;13.662;2023-12-04T09:32:19;4.43;;;3.03;;
25163;SDS011;13440;50.860;13.662;2023-12-04T09:34:45;3.75;;;3.13;;
25163;SDS011;13440;50.860;13.662;2023-12-04T09:37:11;7.90;;;7.10;;
25163;SDS011;13440;50.860;13.662;2023-12-04T09:39:36;5.63;;;3.67;;
25163;SDS011;13440;50.860;13.662;2023-12-04T09:42:01;6.50;;;3.70;;
25163;SDS011;13440;50.860;13.662;2023-12-04T09:44:26;5.85;;;4.00;;
25163;SDS011;13440;50.860;13.662;2023-12-04T09:46:53;5.25;;;3.80;;
25163;SDS011;13440;50.860;13.662;2023-12-04T09:49:18;5.72;;;3.80;;
25163;SDS011;13440;50.860;13.662;2023-12-04T09:51:44;6.53;;;3.38;;
25163;SDS011;13440;50.860;13.662;2023-12-04T09:54:10;4.72;;;2.90;;
25163;SDS011;13440;50.860;13.662;2023-12-04T09:56:36;5.20;;;3.20;;
25163;SDS011;13440;50.860;13.662;2023-12-04T09:59:02;4.65;;;2.63;;
25163;SDS011;13440;50.860;13.662;2023-12-04T10:01:29;3.47;;;2.53;;
25163;SDS011;13440;50.860;13.662;2023-12-04T10:03:56;3.60;;;2.40;;
25163;SDS011;13440;50.860;13.662;2023-12-04T10:06:22;3.35;;;2.58;;
25163;SDS011;13440;50.860;13.662;2023-12-04T10:08:48;4.45;;;2.65;;
25163;SDS011;13440;50.860;13.662;2023-12-04T10:11:14;3.35;;;2.33;;
25163;SDS011;13440;50.860;13.662;2023-12-04T10:13:42;2.55;;;2.15;;
25163;SDS011;13440;50.860;13.662;2023-12-04T10:16:07;3.30;;;2.40;;
25163;SDS011;13440;50.860;13.662;2023-12-04T10:18:33;3.60;;;2.70;;
25163;SDS011;13440;50.860;13.662;2023-12-04T10:20:58;3.72;;;2.85;;
25163;SDS011;13440;50.860;13.662;2023-12-04T10:23:36;3.17;;;2.75;;
25163;SDS011;13440;50.860;13.662;2023-12-04T10:26:02;3.70;;;2.60;;
25163;SDS011;13440;50.860;13.662;2023-12-04T10:28:27;2.72;;;2.22;;
25163;SDS011;13440;50.860;13.662;2023-12-04T10:30:53;3.38;;;2.42;;
25163;SDS011;13440;50.860;13.662;2023-12-04T10:33:18;3.33;;;2.70;;
25163;SDS011;13440;50.860;13.662;2023-12-04T10:35:44;2.47;;;2.07;;
25163;SDS011;13440;50.860;13.662;2023-12-04T10:38:12;2.33;;;1.90;;
25163;SDS011;13440;50.860;13.662;2023-12-04T10:40:39;3.30;;;2.40;;
25163;SDS011;13440;50.860;13.662;2023-12-04T10:43:23;3.55;;;2.40;;
25163;SDS011;13440;50.860;13.662;2023-12-04T10:45:50;3.40;;;2.28;;
25163;SDS011;13440;50.860;13.662;2023-12-04T10:48:16;3.17;;;2.13;;
25163;SDS011;13440;50.860;13.662;2023-12-04T10:50:42;3.13;;;2.30;;
25163;SDS011;13440;50.860;13.662;2023-12-04T10:53:09;3.40;;;2.42;;
25163;SDS011;13440;50.860;13.662;2023-12-04T10:55:35;2.65;;;2.00;;
25163;SDS011;13440;50.860;13.662;2023-12-04T10:58:01;2.70;;;2.17;;
25163;SDS011;13440;50.860;13.662;2023-12-04T11:00:27;4.63;;;2.35;;
25163;SDS011;13440;50.860;13.662;2023-12-04T11:02:54;2.40;;;1.90;;
25163;SDS011;13440;50.860;13.662;2023-12-04T11:05:20;2.83;;;2.08;;
25163;SDS011;13440;50.860;13.662;2023-12-04T11:07:58;2.83;;;1.90;;
25163;SDS011;13440;50.860;13.662;2023-12-04T11:10:26;3.30;;;2.17;;
25163;SDS011;13440;50.860;13.662;2023-12-04T11:13:06;3.72;;;2.67;;
25163;SDS011;13440;50.860;13.662;2023-12-04T11:15:34;2.55;;;2.00;;
25163;SDS011;13440;50.860;13.662;2023-12-04T11:18:00;4.18;;;2.47;;
25163;SDS011;13440;50.860;13.662;2023-12-04T11:20:27;4.32;;;1.95;;
25163;SDS011;13440;50.860;13.662;2023-12-04T11:22:52;2.33;;;1.90;;
25163;SDS011;13440;50.860;13.662;2023-12-04T11:25:18;3.38;;;1.98;;
25163;SDS011;13440;50.860;13.662;2023-12-04T11:27:44;3.53;;;2.47;;
25163;SDS011;13440;50.860;13.662;2023-12-04T11:30:10;3.53;;;2.00;;
25163;SDS011;13440;50.860;13.662;2023-12-04T11:32:46;3.75;;;2.15;;
25163;SDS011;13440;50.860;13.662;2023-12-04T11:35:14;2.95;;;2.17;;
25163;SDS011;13440;50.860;13.662;2023-12-04T11:37:40;4.60;;;2.10;;
25163;SDS011;13440;50.860;13.662;2023-12-04T11:40:05;1.83;;;1.60;;
25163;SDS011;13440;50.860;13.662;2023-12-04T11:42:32;3.15;;;2.03;;
25163;SDS011;13440;50.860;13.662;2023-12-04T11:44:57;1.83;;;1.42;;
25163;SDS011;13440;50.860;13.662;2023-12-04T11:47:23;2.00;;;1.60;;
25163;SDS011;13440;50.860;13.662;2023-12-04T11:49:48;1.67;;;1.53;;
25163;SDS011;13440;50.860;13.662;2023-12-04T11:52:14;2.03;;;1.55;;
25163;SDS011;13440;50.860;13.662;2023-12-04T11:54:59;2.75;;;1.50;;
25163;SDS011;13440;50.860;13.662;2023-12-04T11:57:24;1.60;;;1.45;;
25163;SDS011;13440;50.860;13.662;2023-12-04T11:59:51;1.75;;;1.40;;
25163;SDS011;13440;50.860;13.662;2023-12-04T12:02:16;1.50;;;1.27;;
25163;SDS011;13440;50.860;13.662;2023-12-04T12:04:42;16.65;;;8.73;;
25163;SDS011;13440;50.860;13.662;2023-12-04T12:07:07;33.45;;;17.27;;
25163;SDS011;13440;50.860;13.662;2023-12-04T12:09:33;7.38;;;5.15;;
25163;SDS011;13440;50.860;13.662;2023-12-04T12:12:02;6.82;;;3.38;;
25163;SDS011;13440;50.860;13.662;2023-12-04T12:14:28;6.97;;;4.97;;
25163;SDS011;13440;50.860;13.662;2023-12-04T12:16:54;9.77;;;5.93;;
25163;SDS011;13440;50.860;13.662;2023-12-04T12:19:20;7.32;;;4.88;;
25163;SDS011;13440;50.860;13.662;2023-12-04T12:21:46;4.47;;;3.17;;
25163;SDS011;13440;50.860;13.662;2023-12-04T12:24:14;8.90;;;5.88;;
25163;SDS011;13440;50.860;13.662;2023-12-04T12:26:39;3.72;;;3.08;;
25163;SDS011;13440;50.860;13.662;2023-12-04T12:29:04;4.97;;;4.45;;
25163;SDS011;13440;50.860;13.662;2023-12-04T12:31:30;4.40;;;3.90;;
25163;SDS011;13440;50.860;13.662;2023-12-04T12:33:55;1.63;;;1.00;;
25163;SDS011;13440;50.860;13.662;2023-12-04T12:36:20;1.10;;;1.00;;
25163;SDS011;13440;50.860;13.662;2023-12-04T12:38:46;1.60;;;0.90;;
25163;SDS011;13440;50.860;13.662;2023-12-04T12:41:15;1.27;;;0.95;;
25163;SDS011;13440;50.860;13.662;2023-12-04T12:43:41;3.10;;;2.80;;
25163;SDS011;13440;50.860;13.662;2023-12-04T12:46:06;1.10;;;0.90;;
25163;SDS011;13440;50.860;13.662;2023-12-04T12:48:32;1.20;;;1.10;;
25163;SDS011;13440;50.860;13.662;2023-12-04T12:50:57;1.37;;;1.27;;
25163;SDS011;13440;50.860;13.662;2023-12-04T12:53:23;1.00;;;0.90;;
25163;SDS011;13440;50.860;13.662;2023-12-04T12:55:48;1.95;;;1.30;;
25163;SDS011;13440;50.860;13.662;2023-12-04T12:58:14;1.85;;;1.10;;
25163;SDS011;13440;50.860;13.662;2023-12-04T13:00:40;1.98;;;1.77;;
25163;SDS011;13440;50.860;13.662;2023-12-04T13:03:17;2.95;;;2.42;;
25163;SDS011;13440;50.860;13.662;2023-12-04T13:05:43;3.90;;;2.88;;
25163;SDS011;13440;50.860;13.662;2023-12-04T13:08:08;3.72;;;2.50;;
25163;SDS011;13440;50.860;13.662;2023-12-04T13:10:34;2.40;;;1.58;;
25163;SDS011;13440;50.860;13.662;2023-12-04T13:12:59;3.73;;;2.57;;
25163;SDS011;13440;50.860;13.662;2023-12-04T13:15:25;2.90;;;1.90;;
25163;SDS011;13440;50.860;13.662;2023-12-04T13:17:50;1.50;;;1.40;;
25163;SDS011;13440;50.860;13.662;2023-12-04T13:20:16;2.07;;;1.60;;
25163;SDS011;13440;50.860;13.662;2023-12-04T13:22:42;2.75;;;2.00;;
25163;SDS011;13440;50.860;13.662;2023-12-04T13:25:07;2.00;;;1.70;;
25163;SDS011;13440;50.860;13.662;2023-12-04T13:27:35;2.78;;;1.48;;
25163;SDS011;13440;50.860;13.662;2023-12-04T13:30:01;1.60;;;1.20;;
25163;SDS011;13440;50.860;13.662;2023-12-04T13:32:26;1.73;;;1.40;;
25163;SDS011;13440;50.860;13.662;2023-12-04T13:34:52;1.50;;;1.40;;
25163;SDS011;13440;50.860;13.662;2023-12-04T13:37:19;1.67;;;1.13;;
25163;SDS011;13440;50.860;13.662;2023-12-04T13:39:44;1.43;;;1.30;;
25163;SDS011;13440;50.860;13.662;2023-12-04T13:42:13;1.95;;;1.48;;
25163;SDS011;13440;50.860;13.662;2023-12-04T13:44:57;1.75;;;1.60;;
25163;SDS011;13440;50.860;13.662;2023-12-04T13:47:23;1.40;;;1.17;;
25163;SDS011;13440;50.860;13.662;2023-12-04T13:49:48;2.33;;;1.00;;
25163;SDS011;13440;50.860;13.662;2023-12-04T13:52:14;1.40;;;0.95;;
25163;SDS011;13440;50.860;13.662;2023-12-04T13:54:39;1.10;;;1.00;;
25163;SDS011;13440;50.860;13.662;2023-12-04T13:57:12;0.70;;;0.70;;
25163;SDS011;13440;50.860;13.662;2023-12-04T13:59:52;1.75;;;1.50;;
25163;SDS011;13440;50.860;13.662;2023-12-04T14:02:18;2.03;;;1.70;;
25163;SDS011;13440;50.860;13.662;2023-12-04T14:04:43;1.95;;;1.20;;
25163;SDS011;13440;50.860;13.662;2023-12-04T14:07:08;1.98;;;1.17;;
25163;SDS011;13440;50.860;13.662;2023-12-04T14:09:35;3.20;;;1.92;;
25163;SDS011;13440;50.860;13.662;2023-12-04T14:12:00;2.85;;;1.95;;
25163;SDS011;13440;50.860;13.662;2023-12-04T14:14:25;2.42;;;1.45;;
25163;SDS011;13440;50.860;13.662;2023-12-04T14:16:51;1.70;;;1.50;;
25163;SDS011;13440;50.860;13.662;2023-12-04T14:19:17;2.53;;;1.98;;
25163;SDS011;13440;50.860;13.662;2023-12-04T14:21:46;2.00;;;1.50;;
25163;SDS011;13440;50.860;13.662;2023-12-04T14:24:13;1.50;;;1.40;;